Oshtemo, Michigan
Current Conditions -  °F | °C
As of 2:16 PM on Thursday 27 Nov 2014 (Local Time) from KAZO Reporting Station
Light Snow Light Snow  
Wind Chill: 19°   Ceiling: 1800
Heat Index: 31°   Visibility: 2mi
Dew Point: 26°   Wind: 17mph
Humidity: 82%   Direction: 320°NW
Pressure: 30.2"   Gusts: NA
Location:  42.26°N, 85.68°W
Report Text: KAZO 271916Z 32015KT 2SM -SN SCT013 BKN018 OVC033 M01/M03 A3020 RMK AO2 P0000 T10061033
Loading
Personal Weather Stations






























Interactive Weather Map New forecast layout! Learn more

10-Day Weather Forecast

Advertisements
Track Severe Weather on mobile